sensor_id;sensor_type;location;lat;lon;timestamp;P1;durP1;ratioP1;P2;durP2;ratioP2
77262;SDS011;66373;52.334;4.806;2023-06-10T00:00:01;24.08;;;13.70;;
77262;SDS011;66373;52.334;4.806;2023-06-10T00:02:37;20.02;;;12.57;;
77262;SDS011;66373;52.334;4.806;2023-06-10T00:05:06;20.20;;;13.52;;
77262;SDS011;66373;52.334;4.806;2023-06-10T00:07:35;22.92;;;13.57;;
77262;SDS011;66373;52.334;4.806;2023-06-10T00:10:04;21.38;;;13.32;;
77262;SDS011;66373;52.334;4.806;2023-06-10T00:12:31;19.73;;;12.43;;
77262;SDS011;66373;52.334;4.806;2023-06-10T00:15:04;22.98;;;13.30;;
77262;SDS011;66373;52.334;4.806;2023-06-10T00:17:32;21.23;;;13.43;;
77262;SDS011;66373;52.334;4.806;2023-06-10T00:19:59;19.83;;;12.13;;
77262;SDS011;66373;52.334;4.806;2023-06-10T00:22:30;19.77;;;12.18;;
77262;SDS011;66373;52.334;4.806;2023-06-10T00:24:58;21.80;;;13.10;;
77262;SDS011;66373;52.334;4.806;2023-06-10T00:27:25;20.40;;;11.20;;
77262;SDS011;66373;52.334;4.806;2023-06-10T00:29:56;20.98;;;11.73;;
77262;SDS011;66373;52.334;4.806;2023-06-10T00:32:23;19.20;;;10.95;;
77262;SDS011;66373;52.334;4.806;2023-06-10T00:34:50;16.42;;;11.20;;
77262;SDS011;66373;52.334;4.806;2023-06-10T00:37:17;16.52;;;10.52;;
77262;SDS011;66373;52.334;4.806;2023-06-10T00:39:44;15.93;;;10.90;;
77262;SDS011;66373;52.334;4.806;2023-06-10T00:42:13;17.15;;;10.77;;
77262;SDS011;66373;52.334;4.806;2023-06-10T00:44:39;16.15;;;9.57;;
77262;SDS011;66373;52.334;4.806;2023-06-10T00:47:07;16.77;;;10.23;;
77262;SDS011;66373;52.334;4.806;2023-06-10T00:49:34;15.80;;;9.80;;
77262;SDS011;66373;52.334;4.806;2023-06-10T00:52:01;16.58;;;10.20;;
77262;SDS011;66373;52.334;4.806;2023-06-10T00:54:31;14.82;;;9.88;;
77262;SDS011;66373;52.334;4.806;2023-06-10T00:56:59;14.27;;;9.15;;
77262;SDS011;66373;52.334;4.806;2023-06-10T00:59:29;12.25;;;9.02;;
77262;SDS011;66373;52.334;4.806;2023-06-10T01:01:56;14.15;;;9.52;;
77262;SDS011;66373;52.334;4.806;2023-06-10T01:04:23;12.52;;;8.82;;
77262;SDS011;66373;52.334;4.806;2023-06-10T01:06:52;12.15;;;8.52;;
77262;SDS011;66373;52.334;4.806;2023-06-10T01:09:37;12.73;;;8.88;;
77262;SDS011;66373;52.334;4.806;2023-06-10T01:12:10;13.35;;;8.55;;
77262;SDS011;66373;52.334;4.806;2023-06-10T01:14:44;12.50;;;8.50;;
77262;SDS011;66373;52.334;4.806;2023-06-10T01:17:11;10.80;;;7.60;;
77262;SDS011;66373;52.334;4.806;2023-06-10T01:19:42;10.70;;;7.45;;
77262;SDS011;66373;52.334;4.806;2023-06-10T01:22:11;11.93;;;8.05;;
77262;SDS011;66373;52.334;4.806;2023-06-10T01:24:41;9.77;;;6.93;;
77262;SDS011;66373;52.334;4.806;2023-06-10T01:27:10;9.07;;;6.68;;
77262;SDS011;66373;52.334;4.806;2023-06-10T01:29:43;9.80;;;6.80;;
77262;SDS011;66373;52.334;4.806;2023-06-10T01:32:18;9.73;;;6.40;;
77262;SDS011;66373;52.334;4.806;2023-06-10T01:34:53;9.70;;;6.32;;
77262;SDS011;66373;52.334;4.806;2023-06-10T01:37:23;9.30;;;6.13;;
77262;SDS011;66373;52.334;4.806;2023-06-10T01:39:53;8.65;;;6.20;;
77262;SDS011;66373;52.334;4.806;2023-06-10T01:42:24;8.85;;;5.82;;
77262;SDS011;66373;52.334;4.806;2023-06-10T01:44:51;7.13;;;6.15;;
77262;SDS011;66373;52.334;4.806;2023-06-10T01:47:19;8.50;;;5.88;;
77262;SDS011;66373;52.334;4.806;2023-06-10T01:49:46;8.55;;;5.80;;
77262;SDS011;66373;52.334;4.806;2023-06-10T01:52:13;7.68;;;5.90;;
77262;SDS011;66373;52.334;4.806;2023-06-10T01:54:42;7.93;;;5.60;;
77262;SDS011;66373;52.334;4.806;2023-06-10T01:57:10;7.30;;;5.55;;
77262;SDS011;66373;52.334;4.806;2023-06-10T01:59:37;7.47;;;5.22;;
77262;SDS011;66373;52.334;4.806;2023-06-10T02:02:04;8.13;;;5.50;;
77262;SDS011;66373;52.334;4.806;2023-06-10T02:04:31;6.90;;;5.25;;
77262;SDS011;66373;52.334;4.806;2023-06-10T02:07:01;7.10;;;5.20;;
77262;SDS011;66373;52.334;4.806;2023-06-10T02:09:31;8.27;;;5.85;;
77262;SDS011;66373;52.334;4.806;2023-06-10T02:12:02;6.93;;;4.80;;
77262;SDS011;66373;52.334;4.806;2023-06-10T02:14:33;6.72;;;5.18;;
77262;SDS011;66373;52.334;4.806;2023-06-10T02:17:00;5.72;;;4.72;;
77262;SDS011;66373;52.334;4.806;2023-06-10T02:19:27;6.32;;;5.03;;
77262;SDS011;66373;52.334;4.806;2023-06-10T02:21:56;5.03;;;4.47;;
77262;SDS011;66373;52.334;4.806;2023-06-10T02:24:23;6.28;;;4.63;;
77262;SDS011;66373;52.334;4.806;2023-06-10T02:26:50;6.90;;;5.10;;
77262;SDS011;66373;52.334;4.806;2023-06-10T02:29:19;5.35;;;4.40;;
77262;SDS011;66373;52.334;4.806;2023-06-10T02:31:46;7.00;;;5.28;;
77262;SDS011;66373;52.334;4.806;2023-06-10T02:34:13;6.43;;;4.63;;
77262;SDS011;66373;52.334;4.806;2023-06-10T02:36:40;4.93;;;4.35;;
77262;SDS011;66373;52.334;4.806;2023-06-10T02:39:07;5.90;;;4.38;;
77262;SDS011;66373;52.334;4.806;2023-06-10T02:41:34;5.88;;;4.60;;
77262;SDS011;66373;52.334;4.806;2023-06-10T02:44:02;6.45;;;4.55;;
77262;SDS011;66373;52.334;4.806;2023-06-10T02:46:32;5.70;;;4.57;;
77262;SDS011;66373;52.334;4.806;2023-06-10T02:48:59;6.13;;;4.85;;
77262;SDS011;66373;52.334;4.806;2023-06-10T02:51:27;4.97;;;4.00;;
77262;SDS011;66373;52.334;4.806;2023-06-10T02:53:59;6.55;;;4.32;;
77262;SDS011;66373;52.334;4.806;2023-06-10T02:56:26;5.63;;;4.18;;
77262;SDS011;66373;52.334;4.806;2023-06-10T02:58:56;4.75;;;3.83;;
77262;SDS011;66373;52.334;4.806;2023-06-10T03:01:24;6.72;;;4.13;;
77262;SDS011;66373;52.334;4.806;2023-06-10T03:04:04;7.80;;;4.38;;
77262;SDS011;66373;52.334;4.806;2023-06-10T03:06:33;5.50;;;4.68;;
77262;SDS011;66373;52.334;4.806;2023-06-10T03:09:10;5.05;;;4.32;;
77262;SDS011;66373;52.334;4.806;2023-06-10T03:11:40;6.15;;;4.20;;
77262;SDS011;66373;52.334;4.806;2023-06-10T03:14:07;5.30;;;4.75;;
77262;SDS011;66373;52.334;4.806;2023-06-10T03:16:34;5.10;;;3.95;;
77262;SDS011;66373;52.334;4.806;2023-06-10T03:19:01;5.55;;;4.53;;
77262;SDS011;66373;52.334;4.806;2023-06-10T03:21:30;4.93;;;4.43;;
77262;SDS011;66373;52.334;4.806;2023-06-10T03:23:58;5.40;;;4.10;;
77262;SDS011;66373;52.334;4.806;2023-06-10T03:26:25;5.65;;;4.25;;
77262;SDS011;66373;52.334;4.806;2023-06-10T03:28:54;4.45;;;4.03;;
77262;SDS011;66373;52.334;4.806;2023-06-10T03:31:23;5.22;;;4.25;;
77262;SDS011;66373;52.334;4.806;2023-06-10T03:33:52;7.30;;;3.97;;
77262;SDS011;66373;52.334;4.806;2023-06-10T03:36:19;5.30;;;4.13;;
77262;SDS011;66373;52.334;4.806;2023-06-10T03:38:48;5.63;;;4.40;;
77262;SDS011;66373;52.334;4.806;2023-06-10T03:41:17;4.75;;;4.18;;
77262;SDS011;66373;52.334;4.806;2023-06-10T03:43:44;4.70;;;4.20;;
77262;SDS011;66373;52.334;4.806;2023-06-10T03:46:13;4.80;;;4.07;;
77262;SDS011;66373;52.334;4.806;2023-06-10T03:48:41;5.28;;;4.28;;
77262;SDS011;66373;52.334;4.806;2023-06-10T03:51:08;5.60;;;3.95;;
77262;SDS011;66373;52.334;4.806;2023-06-10T03:53:35;6.25;;;4.22;;
77262;SDS011;66373;52.334;4.806;2023-06-10T03:56:04;5.07;;;3.97;;
77262;SDS011;66373;52.334;4.806;2023-06-10T03:58:31;4.78;;;4.25;;
77262;SDS011;66373;52.334;4.806;2023-06-10T04:00:58;4.97;;;4.00;;
77262;SDS011;66373;52.334;4.806;2023-06-10T04:03:32;5.07;;;4.57;;
77262;SDS011;66373;52.334;4.806;2023-06-10T04:05:59;5.55;;;4.55;;
77262;SDS011;66373;52.334;4.806;2023-06-10T04:08:26;5.05;;;4.13;;
77262;SDS011;66373;52.334;4.806;2023-06-10T04:10:54;6.88;;;4.40;;
77262;SDS011;66373;52.334;4.806;2023-06-10T04:13:23;5.72;;;4.15;;
77262;SDS011;66373;52.334;4.806;2023-06-10T04:15:54;5.07;;;3.95;;
77262;SDS011;66373;52.334;4.806;2023-06-10T04:18:21;4.72;;;4.25;;
77262;SDS011;66373;52.334;4.806;2023-06-10T04:20:50;5.95;;;4.20;;
77262;SDS011;66373;52.334;4.806;2023-06-10T04:23:17;4.90;;;4.40;;
77262;SDS011;66373;52.334;4.806;2023-06-10T04:25:45;5.45;;;4.32;;
77262;SDS011;66373;52.334;4.806;2023-06-10T04:28:12;5.00;;;4.25;;
77262;SDS011;66373;52.334;4.806;2023-06-10T04:30:42;4.70;;;4.22;;
77262;SDS011;66373;52.334;4.806;2023-06-10T04:33:11;5.53;;;3.88;;
77262;SDS011;66373;52.334;4.806;2023-06-10T04:35:39;6.57;;;4.35;;
77262;SDS011;66373;52.334;4.806;2023-06-10T04:38:08;5.20;;;4.05;;
77262;SDS011;66373;52.334;4.806;2023-06-10T04:40:35;6.38;;;4.32;;
77262;SDS011;66373;52.334;4.806;2023-06-10T04:43:03;5.70;;;4.13;;
77262;SDS011;66373;52.334;4.806;2023-06-10T04:45:32;6.00;;;4.15;;
77262;SDS011;66373;52.334;4.806;2023-06-10T04:48:00;4.95;;;3.97;;
77262;SDS011;66373;52.334;4.806;2023-06-10T04:50:28;4.40;;;3.97;;
77262;SDS011;66373;52.334;4.806;2023-06-10T04:52:58;4.93;;;4.38;;
77262;SDS011;66373;52.334;4.806;2023-06-10T04:55:25;5.10;;;4.00;;
77262;SDS011;66373;52.334;4.806;2023-06-10T04:57:52;5.03;;;4.53;;
77262;SDS011;66373;52.334;4.806;2023-06-10T05:00:19;5.68;;;4.38;;
77262;SDS011;66373;52.334;4.806;2023-06-10T05:02:46;4.53;;;4.13;;
77262;SDS011;66373;52.334;4.806;2023-06-10T05:05:16;5.43;;;4.57;;
77262;SDS011;66373;52.334;4.806;2023-06-10T05:07:46;5.68;;;4.60;;
77262;SDS011;66373;52.334;4.806;2023-06-10T05:10:13;6.35;;;4.55;;
77262;SDS011;66373;52.334;4.806;2023-06-10T05:12:40;4.88;;;4.35;;
77262;SDS011;66373;52.334;4.806;2023-06-10T05:15:07;7.25;;;4.40;;
77262;SDS011;66373;52.334;4.806;2023-06-10T05:17:35;6.45;;;4.70;;
77262;SDS011;66373;52.334;4.806;2023-06-10T05:20:02;7.40;;;4.55;;
77262;SDS011;66373;52.334;4.806;2023-06-10T05:22:31;5.85;;;4.28;;
77262;SDS011;66373;52.334;4.806;2023-06-10T05:24:58;6.30;;;4.40;;
77262;SDS011;66373;52.334;4.806;2023-06-10T05:27:25;7.20;;;4.65;;
77262;SDS011;66373;52.334;4.806;2023-06-10T05:29:52;5.82;;;4.60;;
77262;SDS011;66373;52.334;4.806;2023-06-10T05:32:19;5.10;;;4.40;;
77262;SDS011;66373;52.334;4.806;2023-06-10T05:34:45;5.50;;;4.50;;
77262;SDS011;66373;52.334;4.806;2023-06-10T05:37:12;7.38;;;3.72;;
77262;SDS011;66373;52.334;4.806;2023-06-10T05:39:41;5.40;;;4.30;;
77262;SDS011;66373;52.334;4.806;2023-06-10T05:42:08;5.80;;;3.85;;
77262;SDS011;66373;52.334;4.806;2023-06-10T05:44:35;5.13;;;4.03;;
77262;SDS011;66373;52.334;4.806;2023-06-10T05:47:03;5.82;;;4.47;;
77262;SDS011;66373;52.334;4.806;2023-06-10T05:49:30;9.00;;;4.30;;
77262;SDS011;66373;52.334;4.806;2023-06-10T05:51:57;4.65;;;4.20;;
77262;SDS011;66373;52.334;4.806;2023-06-10T05:54:24;5.90;;;4.53;;
77262;SDS011;66373;52.334;4.806;2023-06-10T05:56:53;5.07;;;4.35;;
77262;SDS011;66373;52.334;4.806;2023-06-10T05:59:20;4.75;;;4.28;;
77262;SDS011;66373;52.334;4.806;2023-06-10T06:01:48;5.47;;;4.60;;
77262;SDS011;66373;52.334;4.806;2023-06-10T06:04:16;5.57;;;4.05;;
77262;SDS011;66373;52.334;4.806;2023-06-10T06:06:43;4.57;;;4.13;;
77262;SDS011;66373;52.334;4.806;2023-06-10T06:09:10;5.28;;;4.13;;
77262;SDS011;66373;52.334;4.806;2023-06-10T06:11:38;5.35;;;4.43;;
77262;SDS011;66373;52.334;4.806;2023-06-10T06:14:06;4.88;;;4.10;;
77262;SDS011;66373;52.334;4.806;2023-06-10T06:16:33;5.20;;;3.92;;
77262;SDS011;66373;52.334;4.806;2023-06-10T06:19:00;4.60;;;3.95;;
77262;SDS011;66373;52.334;4.806;2023-06-10T06:21:27;7.40;;;4.35;;
77262;SDS011;66373;52.334;4.806;2023-06-10T06:23:54;5.47;;;3.95;;
77262;SDS011;66373;52.334;4.806;2023-06-10T06:26:21;5.20;;;4.43;;
77262;SDS011;66373;52.334;4.806;2023-06-10T06:28:48;4.60;;;4.10;;
77262;SDS011;66373;52.334;4.806;2023-06-10T06:31:16;5.07;;;4.35;;
77262;SDS011;66373;52.334;4.806;2023-06-10T06:33:43;5.35;;;4.50;;
77262;SDS011;66373;52.334;4.806;2023-06-10T06:36:10;4.47;;;4.00;;
77262;SDS011;66373;52.334;4.806;2023-06-10T06:38:37;5.05;;;4.55;;
77262;SDS011;66373;52.334;4.806;2023-06-10T06:41:04;4.97;;;4.28;;
77262;SDS011;66373;52.334;4.806;2023-06-10T06:43:31;5.38;;;4.50;;
77262;SDS011;66373;52.334;4.806;2023-06-10T06:46:08;5.55;;;4.70;;
77262;SDS011;66373;52.334;4.806;2023-06-10T06:48:36;5.78;;;4.78;;
77262;SDS011;66373;52.334;4.806;2023-06-10T06:51:03;4.88;;;4.22;;
77262;SDS011;66373;52.334;4.806;2023-06-10T06:53:30;5.70;;;4.22;;
77262;SDS011;66373;52.334;4.806;2023-06-10T06:55:59;5.90;;;4.80;;
77262;SDS011;66373;52.334;4.806;2023-06-10T06:58:26;6.65;;;4.30;;
77262;SDS011;66373;52.334;4.806;2023-06-10T07:00:55;8.45;;;4.50;;
77262;SDS011;66373;52.334;4.806;2023-06-10T07:03:22;5.53;;;4.43;;
77262;SDS011;66373;52.334;4.806;2023-06-10T07:05:51;4.75;;;4.25;;
77262;SDS011;66373;52.334;4.806;2023-06-10T07:08:18;5.25;;;4.75;;
77262;SDS011;66373;52.334;4.806;2023-06-10T07:10:45;6.53;;;4.38;;
77262;SDS011;66373;52.334;4.806;2023-06-10T07:13:12;4.70;;;4.22;;
77262;SDS011;66373;52.334;4.806;2023-06-10T07:15:39;6.32;;;3.90;;
77262;SDS011;66373;52.334;4.806;2023-06-10T07:18:06;4.50;;;4.00;;
77262;SDS011;66373;52.334;4.806;2023-06-10T07:20:33;4.60;;;3.80;;
77262;SDS011;66373;52.334;4.806;2023-06-10T07:23:01;5.03;;;4.25;;
77262;SDS011;66373;52.334;4.806;2023-06-10T07:25:28;8.65;;;4.50;;
77262;SDS011;66373;52.334;4.806;2023-06-10T07:27:56;5.00;;;4.25;;
77262;SDS011;66373;52.334;4.806;2023-06-10T07:30:23;4.82;;;4.32;;
77262;SDS011;66373;52.334;4.806;2023-06-10T07:32:50;4.80;;;3.88;;
77262;SDS011;66373;52.334;4.806;2023-06-10T07:35:18;5.68;;;4.43;;
77262;SDS011;66373;52.334;4.806;2023-06-10T07:37:45;7.85;;;3.90;;
77262;SDS011;66373;52.334;4.806;2023-06-10T07:40:14;5.88;;;4.15;;
77262;SDS011;66373;52.334;4.806;2023-06-10T07:42:41;5.70;;;4.50;;
77262;SDS011;66373;52.334;4.806;2023-06-10T07:45:08;4.68;;;4.15;;
77262;SDS011;66373;52.334;4.806;2023-06-10T07:47:35;5.93;;;4.15;;
77262;SDS011;66373;52.334;4.806;2023-06-10T07:50:03;4.90;;;4.13;;
77262;SDS011;66373;52.334;4.806;2023-06-10T07:52:30;4.47;;;4.07;;
77262;SDS011;66373;52.334;4.806;2023-06-10T07:54:57;4.60;;;4.00;;
77262;SDS011;66373;52.334;4.806;2023-06-10T07:57:25;4.57;;;4.03;;
77262;SDS011;66373;52.334;4.806;2023-06-10T07:59:52;4.47;;;4.07;;
77262;SDS011;66373;52.334;4.806;2023-06-10T08:02:20;5.10;;;4.50;;
77262;SDS011;66373;52.334;4.806;2023-06-10T08:04:47;6.35;;;4.30;;
77262;SDS011;66373;52.334;4.806;2023-06-10T08:07:14;4.50;;;4.10;;
77262;SDS011;66373;52.334;4.806;2023-06-10T08:09:43;7.45;;;4.45;;
77262;SDS011;66373;52.334;4.806;2023-06-10T08:12:10;4.97;;;3.83;;
77262;SDS011;66373;52.334;4.806;2023-06-10T08:14:41;4.78;;;3.53;;
77262;SDS011;66373;52.334;4.806;2023-06-10T08:17:08;5.03;;;4.53;;
77262;SDS011;66373;52.334;4.806;2023-06-10T08:19:35;4.97;;;4.00;;
77262;SDS011;66373;52.334;4.806;2023-06-10T08:22:03;5.38;;;4.22;;
77262;SDS011;66373;52.334;4.806;2023-06-10T08:24:30;4.22;;;3.83;;
77262;SDS011;66373;52.334;4.806;2023-06-10T08:26:57;7.13;;;4.15;;
77262;SDS011;66373;52.334;4.806;2023-06-10T08:29:24;4.70;;;4.22;;
77262;SDS011;66373;52.334;4.806;2023-06-10T08:31:53;5.38;;;4.28;;
77262;SDS011;66373;52.334;4.806;2023-06-10T08:34:20;4.20;;;3.58;;
77262;SDS011;66373;52.334;4.806;2023-06-10T08:36:47;5.22;;;3.63;;
77262;SDS011;66373;52.334;4.806;2023-06-10T08:39:18;4.85;;;4.13;;
77262;SDS011;66373;52.334;4.806;2023-06-10T08:41:48;4.40;;;4.00;;
77262;SDS011;66373;52.334;4.806;2023-06-10T08:44:26;7.70;;;4.60;;
77262;SDS011;66373;52.334;4.806;2023-06-10T08:46:59;4.72;;;3.97;;
77262;SDS011;66373;52.334;4.806;2023-06-10T08:49:27;5.28;;;4.20;;
77262;SDS011;66373;52.334;4.806;2023-06-10T08:52:00;4.90;;;3.50;;
77262;SDS011;66373;52.334;4.806;2023-06-10T08:54:30;4.05;;;3.65;;
77262;SDS011;66373;52.334;4.806;2023-06-10T08:59:28;4.20;;;3.80;;
77262;SDS011;66373;52.334;4.806;2023-06-10T09:01:57;4.30;;;3.90;;
77262;SDS011;66373;52.334;4.806;2023-06-10T09:04:25;8.50;;;4.70;;
77262;SDS011;66373;52.334;4.806;2023-06-10T09:06:54;3.95;;;3.53;;
77262;SDS011;66373;52.334;4.806;2023-06-10T09:09:24;5.22;;;4.32;;
77262;SDS011;66373;52.334;4.806;2023-06-10T09:11:56;4.18;;;3.80;;
77262;SDS011;66373;52.334;4.806;2023-06-10T09:14:23;4.10;;;3.70;;
77262;SDS011;66373;52.334;4.806;2023-06-10T09:16:50;4.75;;;4.20;;
77262;SDS011;66373;52.334;4.806;2023-06-10T09:19:23;5.20;;;3.78;;
77262;SDS011;66373;52.334;4.806;2023-06-10T09:21:51;3.97;;;3.67;;
77262;SDS011;66373;52.334;4.806;2023-06-10T09:24:18;4.40;;;3.92;;
77262;SDS011;66373;52.334;4.806;2023-06-10T09:26:45;4.45;;;4.05;;
77262;SDS011;66373;52.334;4.806;2023-06-10T09:29:12;5.20;;;4.20;;
77262;SDS011;66373;52.334;4.806;2023-06-10T09:31:40;5.32;;;4.07;;
77262;SDS011;66373;52.334;4.806;2023-06-10T09:34:26;5.10;;;4.05;;
77262;SDS011;66373;52.334;4.806;2023-06-10T09:36:53;4.15;;;3.75;;
77262;SDS011;66373;52.334;4.806;2023-06-10T09:39:21;4.90;;;4.15;;
77262;SDS011;66373;52.334;4.806;2023-06-10T09:41:48;4.05;;;3.65;;
77262;SDS011;66373;52.334;4.806;2023-06-10T09:44:16;4.43;;;4.03;;
77262;SDS011;66373;52.334;4.806;2023-06-10T09:46:44;4.47;;;3.67;;
77262;SDS011;66373;52.334;4.806;2023-06-10T09:49:12;4.25;;;3.85;;
77262;SDS011;66373;52.334;4.806;2023-06-10T09:51:49;5.15;;;3.63;;
77262;SDS011;66373;52.334;4.806;2023-06-10T09:54:18;4.30;;;3.90;;
77262;SDS011;66373;52.334;4.806;2023-06-10T09:56:46;4.70;;;4.03;;
77262;SDS011;66373;52.334;4.806;2023-06-10T09:59:14;3.90;;;3.50;;
77262;SDS011;66373;52.334;4.806;2023-06-10T10:01:41;4.10;;;3.65;;
77262;SDS011;66373;52.334;4.806;2023-06-10T10:04:08;4.10;;;3.70;;
77262;SDS011;66373;52.334;4.806;2023-06-10T10:06:35;4.38;;;3.90;;
77262;SDS011;66373;52.334;4.806;2023-06-10T10:09:05;3.60;;;3.35;;
77262;SDS011;66373;52.334;4.806;2023-06-10T10:11:32;3.95;;;3.63;;
77262;SDS011;66373;52.334;4.806;2023-06-10T10:14:02;3.92;;;3.60;;
77262;SDS011;66373;52.334;4.806;2023-06-10T10:16:33;3.85;;;3.55;;
77262;SDS011;66373;52.334;4.806;2023-06-10T10:19:07;4.07;;;3.70;;
77262;SDS011;66373;52.334;4.806;2023-06-10T10:21:38;6.38;;;3.85;;
77262;SDS011;66373;52.334;4.806;2023-06-10T10:24:12;4.35;;;3.55;;
77262;SDS011;66373;52.334;4.806;2023-06-10T10:26:43;4.97;;;4.07;;
77262;SDS011;66373;52.334;4.806;2023-06-10T10:29:15;4.70;;;3.90;;
77262;SDS011;66373;52.334;4.806;2023-06-10T10:31:50;4.20;;;3.80;;
77262;SDS011;66373;52.334;4.806;2023-06-10T10:34:19;4.00;;;3.60;;
77262;SDS011;66373;52.334;4.806;2023-06-10T10:36:51;5.22;;;4.13;;
77262;SDS011;66373;52.334;4.806;2023-06-10T10:39:20;6.43;;;3.50;;
77262;SDS011;66373;52.334;4.806;2023-06-10T10:41:47;4.22;;;3.70;;
77262;SDS011;66373;52.334;4.806;2023-06-10T10:44:16;7.20;;;4.07;;
77262;SDS011;66373;52.334;4.806;2023-06-10T10:46:48;4.13;;;3.67;;
77262;SDS011;66373;52.334;4.806;2023-06-10T10:49:16;6.50;;;4.00;;
77262;SDS011;66373;52.334;4.806;2023-06-10T10:51:54;5.72;;;3.78;;
77262;SDS011;66373;52.334;4.806;2023-06-10T10:54:35;5.35;;;4.05;;
77262;SDS011;66373;52.334;4.806;2023-06-10T10:57:12;4.75;;;3.70;;
77262;SDS011;66373;52.334;4.806;2023-06-10T10:59:45;3.90;;;3.50;;
77262;SDS011;66373;52.334;4.806;2023-06-10T11:02:32;4.28;;;3.85;;
77262;SDS011;66373;52.334;4.806;2023-06-10T11:05:03;3.72;;;3.42;;
77262;SDS011;66373;52.334;4.806;2023-06-10T11:07:34;4.80;;;3.70;;
77262;SDS011;66373;52.334;4.806;2023-06-10T11:10:05;5.55;;;4.10;;
77262;SDS011;66373;52.334;4.806;2023-06-10T11:15:07;4.82;;;3.90;;
77262;SDS011;66373;52.334;4.806;2023-06-10T11:17:35;4.30;;;3.90;;
77262;SDS011;66373;52.334;4.806;2023-06-10T11:20:02;4.10;;;3.70;;
77262;SDS011;66373;52.334;4.806;2023-06-10T11:22:30;4.28;;;3.67;;
77262;SDS011;66373;52.334;4.806;2023-06-10T11:24:58;6.22;;;4.38;;
77262;SDS011;66373;52.334;4.806;2023-06-10T11:27:28;4.20;;;3.53;;
77262;SDS011;66373;52.334;4.806;2023-06-10T11:30:19;4.43;;;3.65;;
77262;SDS011;66373;52.334;4.806;2023-06-10T11:32:50;7.75;;;4.13;;
77262;SDS011;66373;52.334;4.806;2023-06-10T11:35:19;4.28;;;3.72;;
77262;SDS011;66373;52.334;4.806;2023-06-10T11:37:48;4.65;;;4.13;;
77262;SDS011;66373;52.334;4.806;2023-06-10T11:40:15;5.22;;;3.90;;
77262;SDS011;66373;52.334;4.806;2023-06-10T11:42:44;4.13;;;3.63;;
77262;SDS011;66373;52.334;4.806;2023-06-10T11:45:15;6.22;;;3.88;;
77262;SDS011;66373;52.334;4.806;2023-06-10T11:47:55;6.25;;;4.15;;
77262;SDS011;66373;52.334;4.806;2023-06-10T11:50:30;4.97;;;3.90;;
77262;SDS011;66373;52.334;4.806;2023-06-10T11:52:58;4.78;;;4.07;;
77262;SDS011;66373;52.334;4.806;2023-06-10T11:55:25;4.30;;;3.63;;
77262;SDS011;66373;52.334;4.806;2023-06-10T11:58:11;5.50;;;3.58;;
77262;SDS011;66373;52.334;4.806;2023-06-10T12:00:43;6.75;;;4.18;;
77262;SDS011;66373;52.334;4.806;2023-06-10T12:03:11;5.85;;;4.20;;
77262;SDS011;66373;52.334;4.806;2023-06-10T12:05:38;5.47;;;3.80;;
77262;SDS011;66373;52.334;4.806;2023-06-10T12:08:09;5.57;;;4.47;;
77262;SDS011;66373;52.334;4.806;2023-06-10T12:10:40;4.03;;;3.58;;
77262;SDS011;66373;52.334;4.806;2023-06-10T12:15:36;6.38;;;3.70;;
77262;SDS011;66373;52.334;4.806;2023-06-10T12:18:04;7.25;;;3.97;;
77262;SDS011;66373;52.334;4.806;2023-06-10T12:20:32;5.05;;;4.30;;
77262;SDS011;66373;52.334;4.806;2023-06-10T12:22:59;6.35;;;3.60;;
77262;SDS011;66373;52.334;4.806;2023-06-10T12:25:27;4.35;;;3.92;;
77262;SDS011;66373;52.334;4.806;2023-06-10T12:27:55;7.93;;;3.78;;
77262;SDS011;66373;52.334;4.806;2023-06-10T12:30:26;4.72;;;3.92;;
77262;SDS011;66373;52.334;4.806;2023-06-10T12:32:54;6.00;;;4.43;;
77262;SDS011;66373;52.334;4.806;2023-06-10T12:35:22;5.43;;;4.20;;
77262;SDS011;66373;52.334;4.806;2023-06-10T12:37:57;5.18;;;3.80;;
77262;SDS011;66373;52.334;4.806;2023-06-10T12:40:26;7.43;;;3.95;;
77262;SDS011;66373;52.334;4.806;2023-06-10T12:42:55;5.90;;;3.80;;
77262;SDS011;66373;52.334;4.806;2023-06-10T12:45:30;6.28;;;4.07;;
77262;SDS011;66373;52.334;4.806;2023-06-10T12:48:05;4.93;;;3.78;;
77262;SDS011;66373;52.334;4.806;2023-06-10T12:50:34;4.97;;;3.75;;
77262;SDS011;66373;52.334;4.806;2023-06-10T12:53:02;4.82;;;3.80;;
77262;SDS011;66373;52.334;4.806;2023-06-10T12:55:30;5.45;;;3.83;;
77262;SDS011;66373;52.334;4.806;2023-06-10T12:57:57;4.35;;;3.83;;
77262;SDS011;66373;52.334;4.806;2023-06-10T13:00:25;4.93;;;3.80;;
77262;SDS011;66373;52.334;4.806;2023-06-10T13:02:57;3.40;;;3.10;;
77262;SDS011;66373;52.334;4.806;2023-06-10T13:05:27;3.80;;;3.50;;
77262;SDS011;66373;52.334;4.806;2023-06-10T13:07:54;4.68;;;3.83;;
77262;SDS011;66373;52.334;4.806;2023-06-10T13:10:22;4.03;;;3.72;;
77262;SDS011;66373;52.334;4.806;2023-06-10T13:12:50;3.88;;;3.40;;
77262;SDS011;66373;52.334;4.806;2023-06-10T13:15:17;7.45;;;4.43;;
77262;SDS011;66373;52.334;4.806;2023-06-10T13:17:44;4.82;;;3.63;;
77262;SDS011;66373;52.334;4.806;2023-06-10T13:20:16;5.28;;;4.40;;
77262;SDS011;66373;52.334;4.806;2023-06-10T13:22:44;6.22;;;3.88;;
77262;SDS011;66373;52.334;4.806;2023-06-10T13:25:11;5.93;;;4.35;;
77262;SDS011;66373;52.334;4.806;2023-06-10T13:27:38;5.22;;;4.10;;
77262;SDS011;66373;52.334;4.806;2023-06-10T13:30:07;7.47;;;4.15;;
77262;SDS011;66373;52.334;4.806;2023-06-10T13:32:37;4.13;;;3.58;;
77262;SDS011;66373;52.334;4.806;2023-06-10T13:35:05;6.95;;;4.35;;
77262;SDS011;66373;52.334;4.806;2023-06-10T13:37:34;6.03;;;3.80;;
77262;SDS011;66373;52.334;4.806;2023-06-10T13:40:02;5.95;;;3.75;;
77262;SDS011;66373;52.334;4.806;2023-06-10T13:42:30;5.78;;;3.92;;
77262;SDS011;66373;52.334;4.806;2023-06-10T13:44:57;4.85;;;3.65;;
77262;SDS011;66373;52.334;4.806;2023-06-10T13:47:24;4.65;;;3.97;;
77262;SDS011;66373;52.334;4.806;2023-06-10T13:49:52;4.45;;;3.72;;
77262;SDS011;66373;52.334;4.806;2023-06-10T13:52:21;4.75;;;3.58;;
77262;SDS011;66373;52.334;4.806;2023-06-10T13:54:50;6.25;;;3.58;;
77262;SDS011;66373;52.334;4.806;2023-06-10T13:57:17;4.60;;;3.45;;
77262;SDS011;66373;52.334;4.806;2023-06-10T13:59:44;4.65;;;3.53;;
77262;SDS011;66373;52.334;4.806;2023-06-10T14:02:11;4.68;;;3.70;;
77262;SDS011;66373;52.334;4.806;2023-06-10T14:04:38;3.95;;;3.38;;
77262;SDS011;66373;52.334;4.806;2023-06-10T14:07:05;4.60;;;3.67;;
77262;SDS011;66373;52.334;4.806;2023-06-10T14:09:33;3.88;;;3.47;;
77262;SDS011;66373;52.334;4.806;2023-06-10T14:12:03;5.00;;;3.22;;
77262;SDS011;66373;52.334;4.806;2023-06-10T14:14:49;4.22;;;3.78;;
77262;SDS011;66373;52.334;4.806;2023-06-10T14:17:54;5.70;;;3.25;;
77262;SDS011;66373;52.334;4.806;2023-06-10T14:20:21;3.78;;;3.40;;
77262;SDS011;66373;52.334;4.806;2023-06-10T14:22:48;3.45;;;3.15;;
77262;SDS011;66373;52.334;4.806;2023-06-10T14:25:16;3.72;;;3.42;;
77262;SDS011;66373;52.334;4.806;2023-06-10T14:27:44;4.10;;;3.25;;
77262;SDS011;66373;52.334;4.806;2023-06-10T14:30:12;4.80;;;3.58;;
77262;SDS011;66373;52.334;4.806;2023-06-10T14:32:40;5.75;;;3.80;;
77262;SDS011;66373;52.334;4.806;2023-06-10T14:35:07;5.05;;;3.65;;
77262;SDS011;66373;52.334;4.806;2023-06-10T14:37:34;3.70;;;3.40;;
77262;SDS011;66373;52.334;4.806;2023-06-10T14:40:01;4.07;;;3.38;;
77262;SDS011;66373;52.334;4.806;2023-06-10T14:42:32;4.13;;;3.70;;
77262;SDS011;66373;52.334;4.806;2023-06-10T14:45:00;3.83;;;3.30;;
77262;SDS011;66373;52.334;4.806;2023-06-10T14:47:28;3.70;;;3.38;;
77262;SDS011;66373;52.334;4.806;2023-06-10T14:50:01;6.53;;;4.10;;
77262;SDS011;66373;52.334;4.806;2023-06-10T14:52:28;5.00;;;3.70;;
77262;SDS011;66373;52.334;4.806;2023-06-10T14:54:57;4.18;;;3.47;;
77262;SDS011;66373;52.334;4.806;2023-06-10T14:57:24;3.72;;;3.42;;
77262;SDS011;66373;52.334;4.806;2023-06-10T14:59:51;3.95;;;3.63;;
77262;SDS011;66373;52.334;4.806;2023-06-10T15:02:20;4.00;;;3.55;;